sensor_id;sensor_type;location;lat;lon;timestamp;P1;durP1;ratioP1;P2;durP2;ratioP2
80985;SDS011;70451;51.226;6.412;2023-06-24T00:00:20;6.93;;;4.20;;
80985;SDS011;70451;51.226;6.412;2023-06-24T00:02:35;7.28;;;4.40;;
80985;SDS011;70451;51.226;6.412;2023-06-24T00:04:56;7.90;;;4.35;;
80985;SDS011;70451;51.226;6.412;2023-06-24T00:07:15;7.32;;;4.45;;
80985;SDS011;70451;51.226;6.412;2023-06-24T00:09:30;7.35;;;4.43;;
80985;SDS011;70451;51.226;6.412;2023-06-24T00:11:46;9.48;;;4.35;;
80985;SDS011;70451;51.226;6.412;2023-06-24T00:14:01;7.72;;;4.22;;
80985;SDS011;70451;51.226;6.412;2023-06-24T00:16:16;7.65;;;4.18;;
80985;SDS011;70451;51.226;6.412;2023-06-24T00:18:32;7.40;;;4.00;;
80985;SDS011;70451;51.226;6.412;2023-06-24T00:20:48;5.82;;;4.20;;
80985;SDS011;70451;51.226;6.412;2023-06-24T00:23:04;8.13;;;4.13;;
80985;SDS011;70451;51.226;6.412;2023-06-24T00:25:20;6.05;;;4.50;;
80985;SDS011;70451;51.226;6.412;2023-06-24T00:27:35;6.30;;;4.20;;
80985;SDS011;70451;51.226;6.412;2023-06-24T00:29:51;5.35;;;4.00;;
80985;SDS011;70451;51.226;6.412;2023-06-24T00:32:06;7.63;;;4.38;;
80985;SDS011;70451;51.226;6.412;2023-06-24T00:34:22;9.07;;;4.70;;
80985;SDS011;70451;51.226;6.412;2023-06-24T00:36:38;6.60;;;4.97;;
80985;SDS011;70451;51.226;6.412;2023-06-24T00:38:55;7.93;;;4.93;;
80985;SDS011;70451;51.226;6.412;2023-06-24T00:41:11;8.30;;;4.60;;
80985;SDS011;70451;51.226;6.412;2023-06-24T00:43:27;5.78;;;4.18;;
80985;SDS011;70451;51.226;6.412;2023-06-24T00:45:42;7.23;;;4.13;;
80985;SDS011;70451;51.226;6.412;2023-06-24T00:47:58;6.80;;;4.85;;
80985;SDS011;70451;51.226;6.412;2023-06-24T00:50:14;7.18;;;4.18;;
80985;SDS011;70451;51.226;6.412;2023-06-24T00:52:30;10.55;;;4.90;;
80985;SDS011;70451;51.226;6.412;2023-06-24T00:54:45;8.38;;;4.50;;
80985;SDS011;70451;51.226;6.412;2023-06-24T00:57:00;8.82;;;4.72;;
80985;SDS011;70451;51.226;6.412;2023-06-24T00:59:16;6.55;;;4.00;;
80985;SDS011;70451;51.226;6.412;2023-06-24T01:01:33;7.10;;;4.53;;
80985;SDS011;70451;51.226;6.412;2023-06-24T01:03:50;8.18;;;4.78;;
80985;SDS011;70451;51.226;6.412;2023-06-24T01:06:05;7.43;;;4.80;;
80985;SDS011;70451;51.226;6.412;2023-06-24T01:08:22;8.27;;;4.60;;
80985;SDS011;70451;51.226;6.412;2023-06-24T01:10:37;6.70;;;4.57;;
80985;SDS011;70451;51.226;6.412;2023-06-24T01:12:53;8.90;;;5.13;;
80985;SDS011;70451;51.226;6.412;2023-06-24T01:15:08;6.88;;;4.13;;
80985;SDS011;70451;51.226;6.412;2023-06-24T01:17:33;8.45;;;4.20;;
80985;SDS011;70451;51.226;6.412;2023-06-24T01:30:24;7.50;;;4.97;;
80985;SDS011;70451;51.226;6.412;2023-06-24T01:32:57;7.45;;;4.25;;
80985;SDS011;70451;51.226;6.412;2023-06-24T01:35:18;8.38;;;5.10;;
80985;SDS011;70451;51.226;6.412;2023-06-24T01:37:47;12.30;;;5.40;;
80985;SDS011;70451;51.226;6.412;2023-06-24T01:42:24;8.05;;;4.68;;
80985;SDS011;70451;51.226;6.412;2023-06-24T01:44:41;8.85;;;4.82;;
80985;SDS011;70451;51.226;6.412;2023-06-24T01:46:58;6.15;;;4.72;;
80985;SDS011;70451;51.226;6.412;2023-06-24T01:49:16;9.38;;;5.63;;
80985;SDS011;70451;51.226;6.412;2023-06-24T01:51:34;7.28;;;4.75;;
80985;SDS011;70451;51.226;6.412;2023-06-24T01:53:52;8.45;;;5.25;;
80985;SDS011;70451;51.226;6.412;2023-06-24T01:56:12;12.35;;;5.78;;
80985;SDS011;70451;51.226;6.412;2023-06-24T01:58:30;7.45;;;5.50;;
80985;SDS011;70451;51.226;6.412;2023-06-24T02:00:50;8.90;;;5.30;;
80985;SDS011;70451;51.226;6.412;2023-06-24T02:03:06;7.80;;;5.18;;
80985;SDS011;70451;51.226;6.412;2023-06-24T02:05:23;7.63;;;5.50;;
80985;SDS011;70451;51.226;6.412;2023-06-24T02:07:39;7.13;;;4.85;;
80985;SDS011;70451;51.226;6.412;2023-06-24T02:09:57;8.40;;;5.13;;
80985;SDS011;70451;51.226;6.412;2023-06-24T02:12:14;9.27;;;6.10;;
80985;SDS011;70451;51.226;6.412;2023-06-24T02:14:30;11.30;;;7.00;;
80985;SDS011;70451;51.226;6.412;2023-06-24T02:16:46;7.95;;;5.35;;
80985;SDS011;70451;51.226;6.412;2023-06-24T02:19:04;8.23;;;4.60;;
80985;SDS011;70451;51.226;6.412;2023-06-24T02:21:21;10.20;;;6.30;;
80985;SDS011;70451;51.226;6.412;2023-06-24T02:23:39;8.98;;;5.38;;
80985;SDS011;70451;51.226;6.412;2023-06-24T02:25:56;9.27;;;5.93;;
80985;SDS011;70451;51.226;6.412;2023-06-24T02:28:12;12.73;;;6.10;;
80985;SDS011;70451;51.226;6.412;2023-06-24T02:30:29;10.55;;;6.32;;
80985;SDS011;70451;51.226;6.412;2023-06-24T02:32:45;8.10;;;6.25;;
80985;SDS011;70451;51.226;6.412;2023-06-24T02:35:01;7.03;;;4.97;;
80985;SDS011;70451;51.226;6.412;2023-06-24T02:37:16;7.97;;;5.38;;
80985;SDS011;70451;51.226;6.412;2023-06-24T02:39:31;9.15;;;5.85;;
80985;SDS011;70451;51.226;6.412;2023-06-24T02:41:47;8.73;;;5.90;;
80985;SDS011;70451;51.226;6.412;2023-06-24T02:44:04;9.70;;;6.05;;
80985;SDS011;70451;51.226;6.412;2023-06-24T02:46:20;9.80;;;6.35;;
80985;SDS011;70451;51.226;6.412;2023-06-24T02:48:37;9.98;;;7.03;;
80985;SDS011;70451;51.226;6.412;2023-06-24T02:50:54;12.57;;;7.97;;
80985;SDS011;70451;51.226;6.412;2023-06-24T02:53:09;11.25;;;7.38;;
80985;SDS011;70451;51.226;6.412;2023-06-24T02:55:26;12.25;;;7.85;;
80985;SDS011;70451;51.226;6.412;2023-06-24T02:57:42;13.32;;;8.30;;
80985;SDS011;70451;51.226;6.412;2023-06-24T02:59:59;12.80;;;8.15;;
80985;SDS011;70451;51.226;6.412;2023-06-24T03:02:14;14.38;;;9.30;;
80985;SDS011;70451;51.226;6.412;2023-06-24T03:04:32;13.63;;;9.30;;
80985;SDS011;70451;51.226;6.412;2023-06-24T03:06:48;17.80;;;9.50;;
80985;SDS011;70451;51.226;6.412;2023-06-24T03:09:04;13.70;;;8.32;;
80985;SDS011;70451;51.226;6.412;2023-06-24T03:11:20;12.32;;;8.93;;
80985;SDS011;70451;51.226;6.412;2023-06-24T03:13:35;12.57;;;8.85;;
80985;SDS011;70451;51.226;6.412;2023-06-24T03:15:50;13.07;;;9.27;;
80985;SDS011;70451;51.226;6.412;2023-06-24T03:18:05;13.90;;;9.07;;
80985;SDS011;70451;51.226;6.412;2023-06-24T03:20:21;11.77;;;8.70;;
80985;SDS011;70451;51.226;6.412;2023-06-24T03:22:36;11.45;;;9.00;;
80985;SDS011;70451;51.226;6.412;2023-06-24T03:24:52;12.35;;;8.93;;
80985;SDS011;70451;51.226;6.412;2023-06-24T03:27:07;14.38;;;10.00;;
80985;SDS011;70451;51.226;6.412;2023-06-24T03:29:23;13.48;;;10.25;;
80985;SDS011;70451;51.226;6.412;2023-06-24T03:31:38;17.20;;;9.52;;
80985;SDS011;70451;51.226;6.412;2023-06-24T03:33:58;14.23;;;9.38;;
80985;SDS011;70451;51.226;6.412;2023-06-24T03:36:14;15.27;;;10.77;;
80985;SDS011;70451;51.226;6.412;2023-06-24T03:38:29;16.02;;;11.10;;
80985;SDS011;70451;51.226;6.412;2023-06-24T03:40:45;15.82;;;11.05;;
80985;SDS011;70451;51.226;6.412;2023-06-24T03:43:00;12.57;;;10.15;;
80985;SDS011;70451;51.226;6.412;2023-06-24T03:45:15;16.83;;;11.02;;
80985;SDS011;70451;51.226;6.412;2023-06-24T03:47:31;16.83;;;10.68;;
80985;SDS011;70451;51.226;6.412;2023-06-24T03:49:46;16.20;;;10.95;;
80985;SDS011;70451;51.226;6.412;2023-06-24T03:52:01;14.50;;;11.45;;
80985;SDS011;70451;51.226;6.412;2023-06-24T03:54:18;15.93;;;10.98;;
80985;SDS011;70451;51.226;6.412;2023-06-24T03:56:34;15.77;;;11.05;;
80985;SDS011;70451;51.226;6.412;2023-06-24T03:58:49;14.27;;;10.70;;
80985;SDS011;70451;51.226;6.412;2023-06-24T04:01:04;20.20;;;10.85;;
80985;SDS011;70451;51.226;6.412;2023-06-24T04:03:20;14.38;;;10.77;;
80985;SDS011;70451;51.226;6.412;2023-06-24T04:05:36;15.55;;;10.38;;
80985;SDS011;70451;51.226;6.412;2023-06-24T04:07:51;15.68;;;11.05;;
80985;SDS011;70451;51.226;6.412;2023-06-24T04:10:08;15.63;;;10.10;;
80985;SDS011;70451;51.226;6.412;2023-06-24T04:12:25;17.35;;;12.43;;
80985;SDS011;70451;51.226;6.412;2023-06-24T04:14:40;16.13;;;12.18;;
80985;SDS011;70451;51.226;6.412;2023-06-24T04:16:56;15.02;;;11.65;;
80985;SDS011;70451;51.226;6.412;2023-06-24T04:19:11;13.40;;;10.43;;
80985;SDS011;70451;51.226;6.412;2023-06-24T04:21:26;15.25;;;11.32;;
80985;SDS011;70451;51.226;6.412;2023-06-24T04:23:42;14.60;;;11.02;;
80985;SDS011;70451;51.226;6.412;2023-06-24T04:25:57;16.77;;;12.27;;
80985;SDS011;70451;51.226;6.412;2023-06-24T04:28:12;15.63;;;12.52;;
80985;SDS011;70451;51.226;6.412;2023-06-24T04:30:28;19.10;;;12.45;;
80985;SDS011;70451;51.226;6.412;2023-06-24T04:32:43;15.20;;;11.27;;
80985;SDS011;70451;51.226;6.412;2023-06-24T04:34:58;22.48;;;14.23;;
80985;SDS011;70451;51.226;6.412;2023-06-24T04:37:18;18.88;;;13.45;;
80985;SDS011;70451;51.226;6.412;2023-06-24T04:39:33;19.25;;;13.43;;
80985;SDS011;70451;51.226;6.412;2023-06-24T04:41:48;18.60;;;14.00;;
80985;SDS011;70451;51.226;6.412;2023-06-24T04:44:04;17.45;;;12.68;;
80985;SDS011;70451;51.226;6.412;2023-06-24T04:46:20;20.02;;;13.48;;
80985;SDS011;70451;51.226;6.412;2023-06-24T04:48:36;19.67;;;15.05;;
80985;SDS011;70451;51.226;6.412;2023-06-24T04:50:52;21.10;;;14.32;;
80985;SDS011;70451;51.226;6.412;2023-06-24T04:53:08;19.05;;;13.75;;
80985;SDS011;70451;51.226;6.412;2023-06-24T04:55:23;19.20;;;13.82;;
80985;SDS011;70451;51.226;6.412;2023-06-24T04:57:39;19.02;;;14.35;;
80985;SDS011;70451;51.226;6.412;2023-06-24T04:59:56;18.23;;;13.13;;
80985;SDS011;70451;51.226;6.412;2023-06-24T05:02:12;19.95;;;14.25;;
80985;SDS011;70451;51.226;6.412;2023-06-24T05:04:27;19.35;;;13.52;;
80985;SDS011;70451;51.226;6.412;2023-06-24T05:06:42;20.58;;;14.45;;
80985;SDS011;70451;51.226;6.412;2023-06-24T05:08:57;16.48;;;13.38;;
80985;SDS011;70451;51.226;6.412;2023-06-24T05:11:13;20.67;;;13.15;;
80985;SDS011;70451;51.226;6.412;2023-06-24T05:13:28;23.35;;;15.48;;
80985;SDS011;70451;51.226;6.412;2023-06-24T05:15:43;18.25;;;13.77;;
80985;SDS011;70451;51.226;6.412;2023-06-24T05:17:59;20.45;;;13.30;;
80985;SDS011;70451;51.226;6.412;2023-06-24T05:20:14;20.08;;;15.45;;
80985;SDS011;70451;51.226;6.412;2023-06-24T05:22:29;18.92;;;14.80;;
80985;SDS011;70451;51.226;6.412;2023-06-24T05:24:45;21.80;;;14.95;;
80985;SDS011;70451;51.226;6.412;2023-06-24T05:27:03;17.60;;;12.73;;
80985;SDS011;70451;51.226;6.412;2023-06-24T05:29:20;17.50;;;12.65;;
80985;SDS011;70451;51.226;6.412;2023-06-24T05:31:35;17.77;;;12.82;;
80985;SDS011;70451;51.226;6.412;2023-06-24T05:33:51;18.10;;;12.88;;
80985;SDS011;70451;51.226;6.412;2023-06-24T05:36:06;17.02;;;12.10;;
80985;SDS011;70451;51.226;6.412;2023-06-24T05:38:21;15.32;;;11.68;;
80985;SDS011;70451;51.226;6.412;2023-06-24T05:40:37;14.57;;;11.27;;
80985;SDS011;70451;51.226;6.412;2023-06-24T05:42:52;14.55;;;11.38;;
80985;SDS011;70451;51.226;6.412;2023-06-24T05:45:07;15.02;;;10.93;;
80985;SDS011;70451;51.226;6.412;2023-06-24T05:47:23;13.82;;;10.70;;
80985;SDS011;70451;51.226;6.412;2023-06-24T05:49:38;12.73;;;9.68;;
80985;SDS011;70451;51.226;6.412;2023-06-24T05:51:54;16.73;;;10.38;;
80985;SDS011;70451;51.226;6.412;2023-06-24T05:54:09;13.10;;;9.32;;
80985;SDS011;70451;51.226;6.412;2023-06-24T05:56:24;11.45;;;8.32;;
80985;SDS011;70451;51.226;6.412;2023-06-24T05:58:41;12.52;;;9.20;;
80985;SDS011;70451;51.226;6.412;2023-06-24T06:00:56;13.40;;;9.07;;
80985;SDS011;70451;51.226;6.412;2023-06-24T06:03:13;11.18;;;9.27;;
80985;SDS011;70451;51.226;6.412;2023-06-24T06:05:29;12.13;;;8.52;;
80985;SDS011;70451;51.226;6.412;2023-06-24T06:07:44;12.10;;;9.10;;
80985;SDS011;70451;51.226;6.412;2023-06-24T06:09:59;12.07;;;8.68;;
80985;SDS011;70451;51.226;6.412;2023-06-24T06:12:15;13.63;;;8.70;;
80985;SDS011;70451;51.226;6.412;2023-06-24T06:14:30;13.45;;;8.60;;
80985;SDS011;70451;51.226;6.412;2023-06-24T06:16:46;10.25;;;8.15;;
80985;SDS011;70451;51.226;6.412;2023-06-24T06:19:01;11.48;;;8.07;;
80985;SDS011;70451;51.226;6.412;2023-06-24T06:21:16;10.20;;;8.02;;
80985;SDS011;70451;51.226;6.412;2023-06-24T06:23:32;11.05;;;8.13;;
80985;SDS011;70451;51.226;6.412;2023-06-24T06:25:47;10.95;;;7.85;;
80985;SDS011;70451;51.226;6.412;2023-06-24T06:28:02;10.02;;;8.15;;
80985;SDS011;70451;51.226;6.412;2023-06-24T06:30:18;11.35;;;7.78;;
80985;SDS011;70451;51.226;6.412;2023-06-24T06:32:33;10.27;;;7.47;;
80985;SDS011;70451;51.226;6.412;2023-06-24T06:34:48;8.45;;;6.93;;
80985;SDS011;70451;51.226;6.412;2023-06-24T06:37:04;9.07;;;6.63;;
80985;SDS011;70451;51.226;6.412;2023-06-24T06:39:19;8.38;;;6.65;;
80985;SDS011;70451;51.226;6.412;2023-06-24T06:41:35;9.65;;;6.82;;
80985;SDS011;70451;51.226;6.412;2023-06-24T06:43:51;8.20;;;6.97;;
80985;SDS011;70451;51.226;6.412;2023-06-24T06:46:06;10.02;;;6.57;;
80985;SDS011;70451;51.226;6.412;2023-06-24T06:48:22;8.75;;;6.00;;
80985;SDS011;70451;51.226;6.412;2023-06-24T06:50:37;9.23;;;5.90;;
80985;SDS011;70451;51.226;6.412;2023-06-24T06:52:52;7.63;;;6.13;;
80985;SDS011;70451;51.226;6.412;2023-06-24T06:55:08;9.77;;;5.45;;
80985;SDS011;70451;51.226;6.412;2023-06-24T06:57:24;7.78;;;5.43;;
80985;SDS011;70451;51.226;6.412;2023-06-24T06:59:39;8.57;;;6.05;;
80985;SDS011;70451;51.226;6.412;2023-06-24T07:01:55;7.63;;;5.22;;
80985;SDS011;70451;51.226;6.412;2023-06-24T07:04:10;9.25;;;5.97;;
80985;SDS011;70451;51.226;6.412;2023-06-24T07:06:25;8.68;;;5.93;;
80985;SDS011;70451;51.226;6.412;2023-06-24T07:08:41;8.05;;;5.60;;
80985;SDS011;70451;51.226;6.412;2023-06-24T07:10:56;9.48;;;5.95;;
80985;SDS011;70451;51.226;6.412;2023-06-24T07:13:11;8.68;;;6.63;;
80985;SDS011;70451;51.226;6.412;2023-06-24T07:15:27;9.00;;;6.15;;
80985;SDS011;70451;51.226;6.412;2023-06-24T07:17:42;9.30;;;4.90;;
80985;SDS011;70451;51.226;6.412;2023-06-24T07:19:57;10.23;;;6.03;;
80985;SDS011;70451;51.226;6.412;2023-06-24T07:22:13;9.63;;;6.72;;
80985;SDS011;70451;51.226;6.412;2023-06-24T07:24:29;8.63;;;6.03;;
80985;SDS011;70451;51.226;6.412;2023-06-24T07:26:44;8.43;;;5.00;;
80985;SDS011;70451;51.226;6.412;2023-06-24T07:28:59;8.73;;;5.90;;
80985;SDS011;70451;51.226;6.412;2023-06-24T07:31:15;7.07;;;5.40;;
80985;SDS011;70451;51.226;6.412;2023-06-24T07:33:31;7.72;;;5.70;;
80985;SDS011;70451;51.226;6.412;2023-06-24T07:35:46;9.27;;;5.40;;
80985;SDS011;70451;51.226;6.412;2023-06-24T07:38:01;7.75;;;5.50;;
80985;SDS011;70451;51.226;6.412;2023-06-24T07:40:16;10.30;;;5.68;;
80985;SDS011;70451;51.226;6.412;2023-06-24T07:42:32;10.30;;;5.80;;
80985;SDS011;70451;51.226;6.412;2023-06-24T07:44:47;9.45;;;5.45;;
80985;SDS011;70451;51.226;6.412;2023-06-24T07:47:03;11.18;;;6.43;;
80985;SDS011;70451;51.226;6.412;2023-06-24T07:49:18;7.85;;;6.15;;
80985;SDS011;70451;51.226;6.412;2023-06-24T07:51:33;8.77;;;5.47;;
80985;SDS011;70451;51.226;6.412;2023-06-24T07:53:50;8.70;;;4.88;;
80985;SDS011;70451;51.226;6.412;2023-06-24T07:56:05;6.95;;;5.35;;
80985;SDS011;70451;51.226;6.412;2023-06-24T07:58:20;8.23;;;5.63;;
80985;SDS011;70451;51.226;6.412;2023-06-24T08:00:36;10.32;;;5.25;;
80985;SDS011;70451;51.226;6.412;2023-06-24T08:02:51;8.90;;;5.25;;
80985;SDS011;70451;51.226;6.412;2023-06-24T08:05:07;8.80;;;6.13;;
80985;SDS011;70451;51.226;6.412;2023-06-24T08:07:24;10.77;;;6.40;;
80985;SDS011;70451;51.226;6.412;2023-06-24T08:09:39;9.20;;;5.75;;
80985;SDS011;70451;51.226;6.412;2023-06-24T08:11:54;6.32;;;5.00;;
80985;SDS011;70451;51.226;6.412;2023-06-24T08:14:09;9.75;;;5.78;;
80985;SDS011;70451;51.226;6.412;2023-06-24T08:16:25;7.97;;;4.78;;
80985;SDS011;70451;51.226;6.412;2023-06-24T08:18:40;10.27;;;5.68;;
80985;SDS011;70451;51.226;6.412;2023-06-24T08:20:55;9.82;;;6.95;;
80985;SDS011;70451;51.226;6.412;2023-06-24T08:23:11;8.07;;;5.60;;
80985;SDS011;70451;51.226;6.412;2023-06-24T08:25:26;9.65;;;5.97;;
80985;SDS011;70451;51.226;6.412;2023-06-24T08:27:42;8.88;;;6.72;;
80985;SDS011;70451;51.226;6.412;2023-06-24T08:30:01;8.68;;;6.10;;
80985;SDS011;70451;51.226;6.412;2023-06-24T08:32:16;9.15;;;5.65;;
80985;SDS011;70451;51.226;6.412;2023-06-24T08:34:32;8.23;;;5.85;;
80985;SDS011;70451;51.226;6.412;2023-06-24T08:36:48;8.38;;;5.82;;
80985;SDS011;70451;51.226;6.412;2023-06-24T08:39:03;11.82;;;6.75;;
80985;SDS011;70451;51.226;6.412;2023-06-24T08:41:19;10.93;;;7.05;;
80985;SDS011;70451;51.226;6.412;2023-06-24T08:43:34;10.25;;;5.75;;
80985;SDS011;70451;51.226;6.412;2023-06-24T08:45:50;7.85;;;5.35;;
80985;SDS011;70451;51.226;6.412;2023-06-24T08:48:05;8.75;;;5.80;;
80985;SDS011;70451;51.226;6.412;2023-06-24T08:50:20;8.60;;;5.65;;
80985;SDS011;70451;51.226;6.412;2023-06-24T08:52:42;7.85;;;5.30;;
80985;SDS011;70451;51.226;6.412;2023-06-24T08:55:00;7.85;;;4.85;;
80985;SDS011;70451;51.226;6.412;2023-06-24T08:57:16;7.68;;;5.22;;
80985;SDS011;70451;51.226;6.412;2023-06-24T08:59:33;8.23;;;5.50;;
80985;SDS011;70451;51.226;6.412;2023-06-24T09:01:50;9.05;;;5.32;;
80985;SDS011;70451;51.226;6.412;2023-06-24T09:04:05;7.60;;;4.45;;
80985;SDS011;70451;51.226;6.412;2023-06-24T09:06:20;7.07;;;4.60;;
80985;SDS011;70451;51.226;6.412;2023-06-24T09:08:36;7.47;;;4.78;;
80985;SDS011;70451;51.226;6.412;2023-06-24T09:10:54;5.95;;;4.68;;
80985;SDS011;70451;51.226;6.412;2023-06-24T09:13:13;6.75;;;4.82;;
80985;SDS011;70451;51.226;6.412;2023-06-24T09:15:32;6.78;;;5.35;;
80985;SDS011;70451;51.226;6.412;2023-06-24T09:17:48;7.32;;;5.10;;
80985;SDS011;70451;51.226;6.412;2023-06-24T09:20:04;7.93;;;5.10;;
80985;SDS011;70451;51.226;6.412;2023-06-24T09:22:20;8.20;;;5.35;;
80985;SDS011;70451;51.226;6.412;2023-06-24T09:24:36;7.03;;;4.90;;
80985;SDS011;70451;51.226;6.412;2023-06-24T09:26:55;6.45;;;4.60;;
80985;SDS011;70451;51.226;6.412;2023-06-24T09:29:12;7.65;;;5.00;;
80985;SDS011;70451;51.226;6.412;2023-06-24T09:31:29;7.93;;;5.18;;
80985;SDS011;70451;51.226;6.412;2023-06-24T09:33:44;7.63;;;4.28;;
80985;SDS011;70451;51.226;6.412;2023-06-24T09:36:03;7.72;;;3.97;;
80985;SDS011;70451;51.226;6.412;2023-06-24T09:38:19;4.10;;;3.47;;
80985;SDS011;70451;51.226;6.412;2023-06-24T09:40:47;4.97;;;3.05;;
80985;SDS011;70451;51.226;6.412;2023-06-24T09:43:02;4.68;;;3.60;;
80985;SDS011;70451;51.226;6.412;2023-06-24T09:45:25;6.97;;;4.22;;
80985;SDS011;70451;51.226;6.412;2023-06-24T09:47:42;5.35;;;3.20;;
80985;SDS011;70451;51.226;6.412;2023-06-24T09:49:57;5.68;;;3.50;;
80985;SDS011;70451;51.226;6.412;2023-06-24T09:52:12;4.97;;;3.60;;
80985;SDS011;70451;51.226;6.412;2023-06-24T09:56:47;4.40;;;3.15;;
80985;SDS011;70451;51.226;6.412;2023-06-24T09:59:04;4.80;;;3.15;;
80985;SDS011;70451;51.226;6.412;2023-06-24T10:01:20;4.20;;;3.03;;
80985;SDS011;70451;51.226;6.412;2023-06-24T10:03:36;5.40;;;3.13;;
80985;SDS011;70451;51.226;6.412;2023-06-24T10:05:53;4.18;;;3.13;;
80985;SDS011;70451;51.226;6.412;2023-06-24T10:08:08;4.75;;;3.33;;
80985;SDS011;70451;51.226;6.412;2023-06-24T10:10:25;4.20;;;3.40;;
80985;SDS011;70451;51.226;6.412;2023-06-24T10:12:41;5.28;;;3.83;;
80985;SDS011;70451;51.226;6.412;2023-06-24T10:14:58;4.95;;;3.13;;
80985;SDS011;70451;51.226;6.412;2023-06-24T10:17:14;4.68;;;2.90;;
80985;SDS011;70451;51.226;6.412;2023-06-24T10:19:30;4.38;;;3.15;;
80985;SDS011;70451;51.226;6.412;2023-06-24T10:24:10;4.28;;;3.20;;
80985;SDS011;70451;51.226;6.412;2023-06-24T10:29:23;5.85;;;3.47;;
80985;SDS011;70451;51.226;6.412;2023-06-24T10:31:44;5.03;;;3.50;;
80985;SDS011;70451;51.226;6.412;2023-06-24T10:33:58;4.45;;;2.95;;
80985;SDS011;70451;51.226;6.412;2023-06-24T10:36:31;3.20;;;2.25;;
80985;SDS011;70451;51.226;6.412;2023-06-24T10:38:55;3.25;;;2.28;;
80985;SDS011;70451;51.226;6.412;2023-06-24T10:41:16;4.35;;;2.53;;
80985;SDS011;70451;51.226;6.412;2023-06-24T10:43:33;4.63;;;2.83;;
80985;SDS011;70451;51.226;6.412;2023-06-24T10:45:54;3.35;;;2.40;;
80985;SDS011;70451;51.226;6.412;2023-06-24T10:48:11;5.38;;;2.38;;
80985;SDS011;70451;51.226;6.412;2023-06-24T10:50:26;4.88;;;2.20;;
80985;SDS011;70451;51.226;6.412;2023-06-24T10:52:43;3.10;;;2.80;;
80985;SDS011;70451;51.226;6.412;2023-06-24T10:54:59;3.15;;;2.45;;
80985;SDS011;70451;51.226;6.412;2023-06-24T10:57:15;3.65;;;2.58;;
80985;SDS011;70451;51.226;6.412;2023-06-24T10:59:39;4.30;;;2.03;;
80985;SDS011;70451;51.226;6.412;2023-06-24T11:01:55;3.25;;;2.10;;
80985;SDS011;70451;51.226;6.412;2023-06-24T11:04:10;2.92;;;2.10;;
80985;SDS011;70451;51.226;6.412;2023-06-24T11:06:25;3.38;;;2.20;;
80985;SDS011;70451;51.226;6.412;2023-06-24T11:08:44;3.53;;;2.72;;
80985;SDS011;70451;51.226;6.412;2023-06-24T11:11:00;4.80;;;2.47;;
80985;SDS011;70451;51.226;6.412;2023-06-24T11:13:19;2.85;;;2.10;;
80985;SDS011;70451;51.226;6.412;2023-06-24T11:15:35;4.38;;;2.28;;
80985;SDS011;70451;51.226;6.412;2023-06-24T11:17:51;8.45;;;3.67;;
80985;SDS011;70451;51.226;6.412;2023-06-24T11:20:07;3.03;;;2.08;;
80985;SDS011;70451;51.226;6.412;2023-06-24T11:22:25;2.58;;;1.95;;
80985;SDS011;70451;51.226;6.412;2023-06-24T11:24:41;3.80;;;2.30;;
80985;SDS011;70451;51.226;6.412;2023-06-24T11:26:57;3.88;;;1.83;;
80985;SDS011;70451;51.226;6.412;2023-06-24T11:29:12;3.13;;;2.35;;
80985;SDS011;70451;51.226;6.412;2023-06-24T11:31:28;2.45;;;2.08;;
80985;SDS011;70451;51.226;6.412;2023-06-24T11:33:47;3.25;;;2.22;;
80985;SDS011;70451;51.226;6.412;2023-06-24T11:36:08;2.38;;;1.70;;
80985;SDS011;70451;51.226;6.412;2023-06-24T11:38:24;2.67;;;1.75;;
80985;SDS011;70451;51.226;6.412;2023-06-24T11:40:47;3.75;;;2.05;;
80985;SDS011;70451;51.226;6.412;2023-06-24T11:43:03;2.92;;;1.67;;
80985;SDS011;70451;51.226;6.412;2023-06-24T11:45:21;2.72;;;1.77;;
80985;SDS011;70451;51.226;6.412;2023-06-24T11:47:38;2.47;;;1.98;;
80985;SDS011;70451;51.226;6.412;2023-06-24T11:49:57;3.50;;;2.17;;
80985;SDS011;70451;51.226;6.412;2023-06-24T11:52:13;3.15;;;2.00;;
80985;SDS011;70451;51.226;6.412;2023-06-24T11:54:28;3.10;;;2.13;;
80985;SDS011;70451;51.226;6.412;2023-06-24T11:56:56;3.22;;;2.13;;
80985;SDS011;70451;51.226;6.412;2023-06-24T11:59:21;3.65;;;2.10;;
80985;SDS011;70451;51.226;6.412;2023-06-24T12:01:39;4.88;;;2.00;;
80985;SDS011;70451;51.226;6.412;2023-06-24T12:03:54;2.63;;;2.15;;
80985;SDS011;70451;51.226;6.412;2023-06-24T12:06:09;3.88;;;2.20;;
80985;SDS011;70451;51.226;6.412;2023-06-24T12:08:25;3.55;;;1.88;;
80985;SDS011;70451;51.226;6.412;2023-06-24T12:10:40;3.45;;;1.90;;
80985;SDS011;70451;51.226;6.412;2023-06-24T12:12:56;3.05;;;2.00;;
80985;SDS011;70451;51.226;6.412;2023-06-24T12:15:12;3.58;;;1.73;;
80985;SDS011;70451;51.226;6.412;2023-06-24T12:17:28;4.82;;;1.80;;
80985;SDS011;70451;51.226;6.412;2023-06-24T12:19:43;3.20;;;2.05;;
80985;SDS011;70451;51.226;6.412;2023-06-24T12:21:58;3.50;;;1.90;;
80985;SDS011;70451;51.226;6.412;2023-06-24T12:24:14;2.63;;;1.80;;
80985;SDS011;70451;51.226;6.412;2023-06-24T12:26:30;2.67;;;1.92;;
80985;SDS011;70451;51.226;6.412;2023-06-24T12:28:46;2.33;;;1.70;;
80985;SDS011;70451;51.226;6.412;2023-06-24T12:31:01;3.22;;;2.00;;
80985;SDS011;70451;51.226;6.412;2023-06-24T12:33:17;3.75;;;1.90;;
80985;SDS011;70451;51.226;6.412;2023-06-24T12:35:34;3.10;;;1.63;;
80985;SDS011;70451;51.226;6.412;2023-06-24T12:37:49;3.30;;;1.80;;
80985;SDS011;70451;51.226;6.412;2023-06-24T12:40:05;3.55;;;1.88;;
80985;SDS011;70451;51.226;6.412;2023-06-24T12:42:21;2.95;;;1.50;;
80985;SDS011;70451;51.226;6.412;2023-06-24T12:44:36;2.95;;;1.80;;
80985;SDS011;70451;51.226;6.412;2023-06-24T12:46:52;2.22;;;1.63;;
80985;SDS011;70451;51.226;6.412;2023-06-24T12:49:08;2.58;;;1.83;;
80985;SDS011;70451;51.226;6.412;2023-06-24T12:51:23;2.78;;;1.90;;
80985;SDS011;70451;51.226;6.412;2023-06-24T12:53:38;2.35;;;1.83;;
80985;SDS011;70451;51.226;6.412;2023-06-24T12:55:54;2.38;;;1.83;;
80985;SDS011;70451;51.226;6.412;2023-06-24T12:58:10;2.67;;;1.63;;
80985;SDS011;70451;51.226;6.412;2023-06-24T13:00:25;3.80;;;1.80;;
80985;SDS011;70451;51.226;6.412;2023-06-24T13:02:40;2.63;;;1.58;;
80985;SDS011;70451;51.226;6.412;2023-06-24T13:04:56;2.58;;;1.67;;
80985;SDS011;70451;51.226;6.412;2023-06-24T13:07:11;3.92;;;1.88;;
80985;SDS011;70451;51.226;6.412;2023-06-24T13:09:26;2.78;;;1.80;;
80985;SDS011;70451;51.226;6.412;2023-06-24T13:11:42;2.30;;;1.70;;
80985;SDS011;70451;51.226;6.412;2023-06-24T13:13:57;3.65;;;2.10;;
80985;SDS011;70451;51.226;6.412;2023-06-24T13:16:13;2.83;;;1.73;;
80985;SDS011;70451;51.226;6.412;2023-06-24T13:18:28;3.35;;;1.77;;
80985;SDS011;70451;51.226;6.412;2023-06-24T13:20:44;2.20;;;1.50;;
80985;SDS011;70451;51.226;6.412;2023-06-24T13:22:59;2.53;;;1.67;;
80985;SDS011;70451;51.226;6.412;2023-06-24T13:25:15;2.78;;;1.95;;
80985;SDS011;70451;51.226;6.412;2023-06-24T13:27:30;7.25;;;2.00;;
80985;SDS011;70451;51.226;6.412;2023-06-24T13:29:45;3.42;;;2.13;;
80985;SDS011;70451;51.226;6.412;2023-06-24T13:32:01;5.28;;;2.10;;
80985;SDS011;70451;51.226;6.412;2023-06-24T13:34:16;3.55;;;1.67;;
80985;SDS011;70451;51.226;6.412;2023-06-24T13:36:32;2.95;;;1.83;;
80985;SDS011;70451;51.226;6.412;2023-06-24T13:38:50;3.05;;;1.83;;
80985;SDS011;70451;51.226;6.412;2023-06-24T13:41:05;2.28;;;1.60;;
80985;SDS011;70451;51.226;6.412;2023-06-24T13:43:20;2.97;;;1.67;;
80985;SDS011;70451;51.226;6.412;2023-06-24T13:45:36;2.60;;;1.60;;
80985;SDS011;70451;51.226;6.412;2023-06-24T13:47:51;2.00;;;1.80;;
80985;SDS011;70451;51.226;6.412;2023-06-24T13:50:06;2.88;;;1.65;;
80985;SDS011;70451;51.226;6.412;2023-06-24T13:52:22;2.60;;;1.73;;
80985;SDS011;70451;51.226;6.412;2023-06-24T13:54:38;2.53;;;1.77;;